Time;durP1;ratioP1;P1;durP2;ratioP2;P2;SDS_P1;SDS_P2;PMS_P1;PMS_P2;Temp;Humidity;BMP_temperature;BMP_pressure;BME280_temperature;BME280_humidity;BME280_pressure;Samples;Min_cycle;Max_cycle;Signal;HPM_P1;HPM_P2
2022/02/17 00:01:38;;;;;;;8.20;4.20;;;;;;;;;;10531915;28;20024;-61
2022/02/17 00:06:38;;;;;;;7.20;4.30;;;;;;;;;;10530768;28;20039;-62
2022/02/17 00:11:41;;;;;;;7.60;4.13;;;;;;;;;;10534846;28;20020;-62
2022/02/17 00:16:41;;;;;;;5.55;4.55;;;;;;;;;;10535243;28;20107;-62
2022/02/17 00:21:42;;;;;;;3.83;3.47;;;;;;;;;;10535177;28;20153;-62
2022/02/17 00:26:42;;;;;;;5.80;4.30;;;;;;;;;;10534983;28;20399;-62
2022/02/17 00:31:43;;;;;;;6.88;3.47;;;;;;;;;;10534803;28;20020;-62
2022/02/17 00:36:43;;;;;;;6.43;3.92;;;;;;;;;;10534149;28;20056;-62
2022/02/17 00:41:43;;;;;;;6.18;3.83;;;;;;;;;;10533959;28;20039;-62
2022/02/17 00:46:44;;;;;;;4.67;3.80;;;;;;;;;;10534033;28;20028;-62
2022/02/17 00:51:44;;;;;;;5.80;3.90;;;;;;;;;;10534292;28;20532;-62
2022/02/17 00:56:45;;;;;;;4.77;4.20;;;;;;;;;;10530458;28;20028;-62
2022/02/17 01:01:46;;;;;;;11.57;4.32;;;;;;;;;;10532050;28;20074;-62
2022/02/17 01:06:47;;;;;;;3.97;3.47;;;;;;;;;;10530633;28;20028;-62
2022/02/17 01:11:47;;;;;;;5.00;4.00;;;;;;;;;;10533764;28;20039;-62
2022/02/17 01:16:48;;;;;;;6.05;4.00;;;;;;;;;;10533135;28;20445;-62
2022/02/17 01:21:48;;;;;;;6.65;4.13;;;;;;;;;;10533119;28;20053;-62
2022/02/17 01:26:48;;;;;;;5.18;4.35;;;;;;;;;;10532759;28;20024;-62
2022/02/17 01:31:49;;;;;;;4.90;3.77;;;;;;;;;;10533645;28;20024;-62
2022/02/17 01:36:49;;;;;;;8.87;4.17;;;;;;;;;;10532490;28;20468;-62
2022/02/17 01:41:49;;;;;;;8.60;4.43;;;;;;;;;;10533132;28;20787;-62
2022/02/17 01:46:50;;;;;;;6.53;4.23;;;;;;;;;;10532643;28;20496;-62
2022/02/17 01:51:50;;;;;;;5.55;4.00;;;;;;;;;;10532637;28;20495;-62
2022/02/17 01:56:51;;;;;;;5.37;3.57;;;;;;;;;;10537148;28;20041;-62
2022/02/17 02:01:51;;;;;;;4.50;3.55;;;;;;;;;;10540334;28;20793;-62
2022/02/17 02:06:52;;;;;;;6.33;4.17;;;;;;;;;;10534321;28;20046;-61
2022/02/17 02:11:53;;;;;;;6.10;4.38;;;;;;;;;;10540242;28;20528;-62
2022/02/17 02:16:54;;;;;;;8.93;4.10;;;;;;;;;;10539524;28;20058;-62
2022/02/17 02:21:54;;;;;;;4.97;3.80;;;;;;;;;;10539580;28;20517;-62
2022/02/17 02:26:54;;;;;;;5.57;4.25;;;;;;;;;;10539281;28;20111;-61
2022/02/17 02:31:55;;;;;;;7.50;3.90;;;;;;;;;;10539568;28;20459;-61
2022/02/17 02:36:55;;;;;;;5.97;3.67;;;;;;;;;;10538685;28;20051;-62
2022/02/17 02:41:55;;;;;;;6.23;4.47;;;;;;;;;;10538805;28;20395;-62
2022/02/17 02:46:56;;;;;;;7.07;4.47;;;;;;;;;;10538889;28;20522;-62
2022/02/17 02:51:56;;;;;;;6.75;4.20;;;;;;;;;;10539034;28;20085;-62
2022/02/17 02:56:57;;;;;;;6.03;3.97;;;;;;;;;;10537592;28;20020;-62
2022/02/17 03:01:57;;;;;;;5.47;3.77;;;;;;;;;;10537846;28;20429;-62
2022/02/17 03:06:58;;;;;;;5.50;3.93;;;;;;;;;;10534459;28;20032;-62
2022/02/17 03:11:58;;;;;;;7.15;4.40;;;;;;;;;;10534741;28;20058;-62
2022/02/17 03:16:58;;;;;;;6.03;4.10;;;;;;;;;;10536903;28;20047;-62
2022/02/17 03:21:59;;;;;;;5.00;4.13;;;;;;;;;;10536977;28;20440;-62
2022/02/17 03:26:59;;;;;;;5.20;4.20;;;;;;;;;;10536875;28;20111;-62
2022/02/17 03:32:00;;;;;;;5.78;3.92;;;;;;;;;;10537141;28;20433;-62
2022/02/17 03:37:00;;;;;;;6.75;4.55;;;;;;;;;;10536824;28;20090;-62
2022/02/17 03:42:01;;;;;;;6.97;4.32;;;;;;;;;;10536251;28;20588;-61
2022/02/17 03:47:01;;;;;;;7.03;4.28;;;;;;;;;;10535746;28;20459;-62
2022/02/17 03:52:02;;;;;;;5.88;4.30;;;;;;;;;;10536180;28;20055;-62
2022/02/17 03:57:03;;;;;;;9.02;4.38;;;;;;;;;;10535520;28;20494;-62
2022/02/17 04:02:04;;;;;;;6.28;4.00;;;;;;;;;;10535943;28;20024;-62
2022/02/17 04:07:05;;;;;;;6.32;4.05;;;;;;;;;;10535337;28;20163;-62
2022/02/17 04:12:06;;;;;;;6.10;4.10;;;;;;;;;;10532336;28;20020;-62
2022/02/17 04:17:06;;;;;;;6.05;4.28;;;;;;;;;;10534027;28;20028;-61
2022/02/17 04:22:08;;;;;;;6.63;4.27;;;;;;;;;;10531683;28;20091;-62
2022/02/17 04:27:08;;;;;;;8.02;4.40;;;;;;;;;;10534869;28;20433;-62
2022/02/17 04:32:08;;;;;;;5.33;4.30;;;;;;;;;;10534942;28;20479;-62
2022/02/17 04:37:09;;;;;;;5.57;3.80;;;;;;;;;;10533845;28;20477;-61
2022/02/17 04:42:18;;;;;;;6.97;4.17;;;;;;;;;;10533970;28;20491;-61
2022/02/17 04:47:19;;;;;;;7.57;3.83;;;;;;;;;;10534383;28;20052;-62
2022/02/17 04:52:19;;;;;;;4.22;3.55;;;;;;;;;;10533771;28;20457;-62
2022/02/17 04:57:20;;;;;;;6.57;4.03;;;;;;;;;;10533400;28;20034;-63
2022/02/17 05:02:20;;;;;;;6.20;3.97;;;;;;;;;;10533528;28;20048;-61
2022/02/17 05:07:21;;;;;;;5.67;3.80;;;;;;;;;;10533348;28;20050;-62
2022/02/17 05:12:21;;;;;;;6.60;3.73;;;;;;;;;;10533352;28;20107;-61
2022/02/17 05:17:21;;;;;;;7.13;3.07;;;;;;;;;;10532978;28;20040;-61
2022/02/17 05:22:22;;;;;;;5.63;3.70;;;;;;;;;;10529919;28;20020;-62
2022/02/17 05:27:22;;;;;;;5.53;3.57;;;;;;;;;;10532977;28;20099;-62
2022/02/17 05:32:22;;;;;;;5.63;3.80;;;;;;;;;;10537152;28;20425;-62
2022/02/17 05:37:23;;;;;;;4.90;3.60;;;;;;;;;;10540977;28;20048;-62
2022/02/17 05:42:23;;;;;;;4.93;3.60;;;;;;;;;;10541091;28;20035;-62
2022/02/17 05:47:23;;;;;;;4.87;3.50;;;;;;;;;;10540754;28;20130;-62
2022/02/17 05:52:24;;;;;;;5.00;3.50;;;;;;;;;;10540764;28;20433;-62
2022/02/17 05:57:24;;;;;;;4.22;3.58;;;;;;;;;;10540158;28;20323;-62
2022/02/17 06:02:26;;;;;;;3.83;3.40;;;;;;;;;;10540916;28;20031;-62
2022/02/17 06:07:26;;;;;;;4.68;3.38;;;;;;;;;;10538999;28;20028;-62
2022/02/17 06:12:27;;;;;;;5.53;3.43;;;;;;;;;;10539231;28;20096;-62
2022/02/17 06:17:27;;;;;;;4.63;3.37;;;;;;;;;;10539461;28;20513;-62
2022/02/17 06:22:28;;;;;;;7.30;3.43;;;;;;;;;;10539420;28;20028;-61
2022/02/17 06:27:29;;;;;;;5.07;3.20;;;;;;;;;;10538796;28;20107;-62
2022/02/17 06:32:30;;;;;;;3.53;3.00;;;;;;;;;;10531851;28;20073;-62
2022/02/17 06:37:30;;;;;;;6.07;3.90;;;;;;;;;;10538630;28;20457;-62
2022/02/17 06:42:30;;;;;;;4.47;3.50;;;;;;;;;;10537288;28;20524;-61
2022/02/17 06:47:31;;;;;;;6.33;3.50;;;;;;;;;;10538528;28;20442;-62
2022/02/17 06:52:32;;;;;;;4.53;3.30;;;;;;;;;;10538295;28;20024;-62
2022/02/17 06:57:32;;;;;;;7.50;4.22;;;;;;;;;;10537935;28;20099;-64
2022/02/17 07:02:33;;;;;;;10.18;4.78;;;;;;;;;;10537651;28;20103;-63
2022/02/17 07:07:35;;;;;;;17.13;5.65;;;;;;;;;;10537142;28;20097;-63
2022/02/17 07:12:35;;;;;;;21.02;5.60;;;;;;;;;;10537608;28;20028;-66
2022/02/17 07:17:36;;;;;;;13.10;6.05;;;;;;;;;;10535924;28;20028;-64
2022/02/17 07:22:36;;;;;;;17.60;6.15;;;;;;;;;;10536443;28;20119;-65
2022/02/17 07:27:37;;;;;;;24.30;6.37;;;;;;;;;;10535571;28;20114;-67
2022/02/17 07:32:41;;;;;;;28.70;5.60;;;;;;;;;;10533530;28;20440;-66
2022/02/17 07:37:41;;;;;;;13.25;5.82;;;;;;;;;;10532482;28;20048;-67
2022/02/17 07:42:45;;;;;;;29.02;6.85;;;;;;;;;;10535904;28;20066;-67
2022/02/17 07:47:46;;;;;;;17.27;5.93;;;;;;;;;;10535825;28;20023;-66
2022/02/17 07:52:46;;;;;;;28.55;6.82;;;;;;;;;;10535776;28;20024;-66
2022/02/17 07:57:47;;;;;;;20.98;6.40;;;;;;;;;;10535364;28;20028;-66
2022/02/17 08:02:47;;;;;;;15.07;6.37;;;;;;;;;;10534683;28;20382;-67
2022/02/17 08:07:47;;;;;;;19.63;7.00;;;;;;;;;;10535335;28;20445;-66
2022/02/17 08:12:48;;;;;;;22.37;6.53;;;;;;;;;;10534965;28;20801;-66
2022/02/17 08:17:48;;;;;;;16.83;6.23;;;;;;;;;;10534588;28;20628;-67
2022/02/17 08:22:54;;;;;;;11.20;6.30;;;;;;;;;;10534625;28;20383;-67
2022/02/17 08:27:55;;;;;;;14.07;6.38;;;;;;;;;;10534309;28;20492;-67
2022/02/17 08:32:56;;;;;;;14.47;6.33;;;;;;;;;;10533935;28;20103;-67
2022/02/17 08:37:56;;;;;;;18.70;6.65;;;;;;;;;;10527304;28;20484;-65
2022/02/17 08:43:08;;;;;;;21.90;6.85;;;;;;;;;;10532744;28;20024;-67
2022/02/17 08:48:12;;;;;;;16.65;6.07;;;;;;;;;;10531251;28;20050;-68
2022/02/17 08:53:13;;;;;;;16.60;6.47;;;;;;;;;;10531795;28;20024;-65
2022/02/17 08:58:14;;;;;;;14.00;5.97;;;;;;;;;;10531504;28;20467;-65
2022/02/17 09:03:14;;;;;;;13.60;6.00;;;;;;;;;;10531746;28;20043;-66
2022/02/17 09:08:15;;;;;;;21.08;6.75;;;;;;;;;;10534045;28;20039;-65
2022/02/17 09:13:15;;;;;;;15.93;6.57;;;;;;;;;;10532035;28;20028;-65
2022/02/17 09:18:18;;;;;;;13.77;5.82;;;;;;;;;;10532210;28;20544;-65
2022/02/17 09:23:19;;;;;;;12.00;6.32;;;;;;;;;;10529419;28;20084;-65
2022/02/17 09:28:19;;;;;;;21.75;7.10;;;;;;;;;;10530113;28;20028;-66
2022/02/17 09:33:19;;;;;;;14.33;6.77;;;;;;;;;;10532039;28;20111;-66
2022/02/17 09:38:20;;;;;;;14.00;6.40;;;;;;;;;;10527217;28;20044;-66
2022/02/17 09:43:24;;;;;;;12.47;6.33;;;;;;;;;;10528224;28;20139;-65
2022/02/17 09:48:24;;;;;;;10.45;6.30;;;;;;;;;;10530503;28;20028;-66
2022/02/17 09:53:25;;;;;;;18.67;7.07;;;;;;;;;;10530470;28;20020;-65
2022/02/17 09:58:25;;;;;;;16.20;6.27;;;;;;;;;;10531353;28;20387;-66
2022/02/17 10:03:32;;;;;;;18.00;6.43;;;;;;;;;;10530346;28;20425;-66
2022/02/17 10:08:33;;;;;;;13.35;6.30;;;;;;;;;;10529474;28;20422;-67
2022/02/17 10:13:34;;;;;;;17.08;6.45;;;;;;;;;;10530072;28;20040;-65
2022/02/17 10:18:39;;;;;;;15.15;6.65;;;;;;;;;;10537680;28;20119;-66
2022/02/17 10:23:46;;;;;;;14.73;6.97;;;;;;;;;;10539434;28;20475;-67
2022/02/17 10:28:54;;;;;;;14.82;6.65;;;;;;;;;;10537010;28;20024;-67
2022/02/17 10:33:56;;;;;;;14.10;6.63;;;;;;;;;;10538411;28;20030;-66
2022/02/17 10:39:22;;;;;;;12.55;6.07;;;;;;;;;;10537434;28;20051;-66
2022/02/17 10:44:25;;;;;;;15.45;6.63;;;;;;;;;;10529241;28;20050;-66
2022/02/17 10:49:26;;;;;;;15.18;7.38;;;;;;;;;;10534054;28;20088;-65
2022/02/17 10:54:26;;;;;;;15.98;6.78;;;;;;;;;;10536219;28;20170;-67
2022/02/17 11:04:56;;;;;;;14.95;6.75;;;;;;;;;;10537780;28;20028;-66
2022/02/17 11:09:57;;;;;;;13.48;6.22;;;;;;;;;;10536668;28;20467;-65
2022/02/17 11:15:04;;;;;;;9.93;6.25;;;;;;;;;;10537829;28;20024;-66
2022/02/17 11:20:20;;;;;;;15.48;6.95;;;;;;;;;;10537373;28;20028;-66
2022/02/17 11:25:47;;;;;;;14.45;7.53;;;;;;;;;;10536981;28;20111;-66
2022/02/17 11:31:08;;;;;;;14.88;6.95;;;;;;;;;;10532641;28;20046;-65
2022/02/17 11:36:19;;;;;;;13.95;6.82;;;;;;;;;;10535704;28;20556;-65
2022/02/17 11:41:20;;;;;;;12.75;7.80;;;;;;;;;;10534322;28;20031;-65
2022/02/17 11:46:43;;;;;;;13.18;7.53;;;;;;;;;;10531728;28;20438;-65
2022/02/17 11:52:20;;;;;;;11.23;7.32;;;;;;;;;;10536376;28;20179;-65
2022/02/17 11:57:36;;;;;;;11.85;6.70;;;;;;;;;;10536285;28;20036;-66
2022/02/17 12:02:41;;;;;;;17.05;8.02;;;;;;;;;;10535000;28;20024;-67
2022/02/17 12:07:42;;;;;;;13.05;8.05;;;;;;;;;;10535561;28;20134;-66
2022/02/17 12:12:42;;;;;;;14.27;7.63;;;;;;;;;;10533315;28;20059;-67
2022/02/17 12:17:44;;;;;;;12.30;7.07;;;;;;;;;;10534589;28;20123;-67
2022/02/17 12:22:49;;;;;;;13.27;8.05;;;;;;;;;;10534577;28;20437;-66
2022/02/17 12:28:06;;;;;;;13.05;7.68;;;;;;;;;;10534628;28;20024;-65
2022/02/17 12:33:09;;;;;;;13.82;8.23;;;;;;;;;;10534351;28;20028;-66
2022/02/17 12:38:14;;;;;;;11.82;7.88;;;;;;;;;;10533201;28;20298;-66
2022/02/17 12:43:32;;;;;;;15.00;9.25;;;;;;;;;;10532319;28;20190;-66
2022/02/17 12:48:35;;;;;;;12.55;8.05;;;;;;;;;;10534459;28;20047;-66
2022/02/17 12:53:50;;;;;;;16.83;8.43;;;;;;;;;;10530489;28;20110;-66
2022/02/17 12:58:51;;;;;;;19.42;8.77;;;;;;;;;;10550280;22;20448;-61
2022/02/17 13:03:53;;;;;;;13.88;7.63;;;;;;;;;;10537977;28;20406;-65
2022/02/17 13:08:58;;;;;;;15.93;8.30;;;;;;;;;;10532030;28;20107;-65
2022/02/17 13:14:06;;;;;;;14.35;8.02;;;;;;;;;;10532616;28;20044;-61
2022/02/17 13:19:07;;;;;;;15.43;9.52;;;;;;;;;;10531966;28;20081;-65
2022/02/17 13:24:11;;;;;;;20.43;9.90;;;;;;;;;;10531147;28;20020;-65
2022/02/17 13:29:13;;;;;;;17.38;9.40;;;;;;;;;;10530706;28;20070;-61
2022/02/17 13:34:19;;;;;;;17.63;8.93;;;;;;;;;;10532569;28;20069;-60
2022/02/17 13:39:21;;;;;;;28.80;9.63;;;;;;;;;;10532854;28;20024;-61
2022/02/17 13:44:38;;;;;;;20.02;9.80;;;;;;;;;;10532464;28;20218;-61
2022/02/17 13:49:43;;;;;;;26.55;11.55;;;;;;;;;;10533198;28;20103;-66
2022/02/17 13:54:55;;;;;;;27.80;12.07;;;;;;;;;;10539159;28;20035;-67
2022/02/17 14:00:07;;;;;;;25.55;11.02;;;;;;;;;;10536567;28;20040;-60
2022/02/17 14:05:08;;;;;;;20.60;11.52;;;;;;;;;;10540112;28;20292;-63
2022/02/17 14:10:09;;;;;;;23.30;11.32;;;;;;;;;;10536575;28;20541;-62
2022/02/17 14:15:10;;;;;;;23.67;10.93;;;;;;;;;;10539654;28;20028;-63
2022/02/17 14:20:11;;;;;;;22.92;11.15;;;;;;;;;;10539239;28;20364;-62
2022/02/17 14:25:11;;;;;;;20.85;10.75;;;;;;;;;;10539170;28;20024;-66
2022/02/17 14:30:12;;;;;;;22.83;10.75;;;;;;;;;;10539173;28;20422;-65
2022/02/17 14:35:14;;;;;;;20.40;11.07;;;;;;;;;;10538927;28;20562;-67
2022/02/17 14:40:16;;;;;;;22.15;11.35;;;;;;;;;;10539105;28;20950;-63
2022/02/17 14:45:17;;;;;;;21.20;10.63;;;;;;;;;;10538821;28;20028;-64
2022/02/17 14:50:18;;;;;;;19.13;9.88;;;;;;;;;;10538252;28;20535;-67
2022/02/17 14:55:18;;;;;;;24.73;9.98;;;;;;;;;;10537981;28;20111;-61
2022/02/17 15:00:19;;;;;;;19.73;10.48;;;;;;;;;;10537588;28;20048;-65
2022/02/17 15:05:20;;;;;;;16.92;8.98;;;;;;;;;;10537465;28;20032;-67
2022/02/17 15:10:20;;;;;;;18.17;9.65;;;;;;;;;;10534293;28;20369;-67
2022/02/17 15:15:21;;;;;;;18.88;9.30;;;;;;;;;;10537125;28;20425;-68
2022/02/17 15:20:21;;;;;;;17.83;9.35;;;;;;;;;;10534033;28;20035;-68
2022/02/17 15:25:24;;;;;;;16.98;8.98;;;;;;;;;;10536848;28;20023;-67
2022/02/17 15:30:26;;;;;;;21.35;9.30;;;;;;;;;;10536792;28;20024;-64
2022/02/17 15:35:26;;;;;;;16.20;8.40;;;;;;;;;;10535603;28;20028;-61
2022/02/17 15:40:27;;;;;;;20.52;9.05;;;;;;;;;;10536520;28;20530;-64
2022/02/17 15:45:27;;;;;;;13.23;7.65;;;;;;;;;;10536465;28;20028;-68
2022/02/17 15:50:28;;;;;;;15.93;8.57;;;;;;;;;;10535827;28;20072;-60
2022/02/17 15:55:28;;;;;;;19.45;8.00;;;;;;;;;;10534480;28;20504;-61
2022/02/17 16:00:29;;;;;;;14.43;8.75;;;;;;;;;;10533820;28;20048;-68
2022/02/17 16:05:30;;;;;;;17.70;8.45;;;;;;;;;;10535141;28;20027;-61
2022/02/17 16:10:31;;;;;;;13.73;8.48;;;;;;;;;;10535405;28;20077;-62
2022/02/17 16:15:32;;;;;;;16.30;7.97;;;;;;;;;;10532740;28;20024;-61
2022/02/17 16:20:32;;;;;;;14.95;8.15;;;;;;;;;;10531563;28;20484;-61
2022/02/17 16:25:33;;;;;;;14.55;8.27;;;;;;;;;;10534772;28;20428;-67
2022/02/17 16:30:35;;;;;;;13.35;8.40;;;;;;;;;;10531141;28;20142;-62
2022/02/17 16:35:35;;;;;;;15.80;8.70;;;;;;;;;;10534439;28;20024;-65
2022/02/17 16:40:36;;;;;;;12.10;8.07;;;;;;;;;;10533894;28;20035;-65
2022/02/17 16:45:36;;;;;;;13.45;8.50;;;;;;;;;;10533737;28;20031;-66
2022/02/17 16:50:38;;;;;;;13.77;7.88;;;;;;;;;;10533754;28;20024;-62
2022/02/17 16:55:40;;;;;;;13.98;8.55;;;;;;;;;;10533449;28;20071;-62
2022/02/17 17:00:41;;;;;;;15.80;7.50;;;;;;;;;;10533027;28;20044;-63
2022/02/17 17:05:42;;;;;;;17.48;8.80;;;;;;;;;;10533186;28;20024;-61
2022/02/17 17:10:46;;;;;;;14.57;7.82;;;;;;;;;;10533610;28;20024;-62
2022/02/17 17:15:47;;;;;;;13.30;7.95;;;;;;;;;;10532919;28;20052;-61
2022/02/17 17:20:47;;;;;;;11.10;7.57;;;;;;;;;;10533306;28;20111;-61
2022/02/17 17:25:48;;;;;;;11.75;7.32;;;;;;;;;;10535944;28;20055;-63
2022/02/17 17:30:48;;;;;;;18.23;7.57;;;;;;;;;;10538867;28;20032;-61
2022/02/17 17:35:50;;;;;;;12.70;7.75;;;;;;;;;;10537975;28;20521;-61
2022/02/17 17:40:50;;;;;;;10.52;6.75;;;;;;;;;;10540725;28;20031;-61
2022/02/17 17:45:51;;;;;;;10.48;7.28;;;;;;;;;;10539947;28;20379;-62
2022/02/17 17:50:51;;;;;;;12.02;7.22;;;;;;;;;;10539738;28;20028;-61
2022/02/17 17:55:51;;;;;;;12.63;7.15;;;;;;;;;;10540129;28;20028;-61
2022/02/17 18:00:53;;;;;;;13.18;7.55;;;;;;;;;;10539244;28;20479;-62
2022/02/17 18:05:53;;;;;;;15.05;7.60;;;;;;;;;;10537867;28;20167;-62
2022/02/17 18:10:54;;;;;;;16.02;7.68;;;;;;;;;;10539197;28;20186;-63
2022/02/17 18:15:55;;;;;;;18.38;7.60;;;;;;;;;;10539899;28;20442;-63
2022/02/17 18:20:55;;;;;;;11.10;7.50;;;;;;;;;;10539367;28;20024;-64
2022/02/17 18:25:56;;;;;;;13.70;7.63;;;;;;;;;;10539228;28;20024;-62
2022/02/17 18:30:56;;;;;;;13.93;6.55;;;;;;;;;;10539380;28;20040;-62
2022/02/17 18:35:59;;;;;;;11.63;7.70;;;;;;;;;;10533354;28;20020;-62
2022/02/17 18:41:00;;;;;;;14.32;7.65;;;;;;;;;;10534991;28;20028;-62
2022/02/17 18:46:01;;;;;;;15.73;7.88;;;;;;;;;;10538039;28;20476;-63
2022/02/17 18:51:02;;;;;;;15.15;7.50;;;;;;;;;;10537397;28;20052;-61
2022/02/17 18:56:03;;;;;;;15.55;8.50;;;;;;;;;;10536686;28;20051;-63
2022/02/17 19:01:06;;;;;;;13.88;7.13;;;;;;;;;;10535699;28;20402;-62
2022/02/17 19:06:07;;;;;;;18.55;7.20;;;;;;;;;;10536910;28;20062;-62
2022/02/17 19:11:07;;;;;;;15.88;8.38;;;;;;;;;;10534062;28;20036;-64
2022/02/17 19:16:08;;;;;;;11.27;7.43;;;;;;;;;;10533659;28;20085;-67
2022/02/17 19:21:09;;;;;;;13.63;7.60;;;;;;;;;;10533353;28;20544;-62
2022/02/17 19:26:09;;;;;;;15.65;8.32;;;;;;;;;;10532961;28;20028;-63
2022/02/17 19:31:09;;;;;;;29.20;9.25;;;;;;;;;;10532115;28;20557;-65
2022/02/17 19:36:10;;;;;;;25.13;8.37;;;;;;;;;;10531179;28;20486;-64
2022/02/17 19:41:10;;;;;;;30.23;9.30;;;;;;;;;;10530104;28;20449;-62
2022/02/17 19:46:11;;;;;;;15.97;8.30;;;;;;;;;;10535261;28;20027;-68
2022/02/17 19:51:12;;;;;;;17.80;8.82;;;;;;;;;;10532392;28;20432;-67
2022/02/17 19:56:12;;;;;;;16.58;7.57;;;;;;;;;;10535461;28;20496;-68
2022/02/17 20:01:13;;;;;;;17.37;6.97;;;;;;;;;;10535469;28;20468;-66
2022/02/17 20:06:13;;;;;;;23.10;8.33;;;;;;;;;;10533473;28;20537;-67
2022/02/17 20:11:13;;;;;;;15.50;8.00;;;;;;;;;;10533544;28;20035;-67
2022/02/17 20:16:14;;;;;;;19.23;6.70;;;;;;;;;;10533156;28;20020;-66
2022/02/17 20:21:14;;;;;;;15.30;7.47;;;;;;;;;;10533770;28;20031;-66
2022/02/17 20:26:15;;;;;;;18.83;7.50;;;;;;;;;;10534249;28;20433;-67
2022/02/17 20:31:16;;;;;;;16.50;7.80;;;;;;;;;;10534378;28;20034;-66
2022/02/17 20:36:17;;;;;;;12.57;7.78;;;;;;;;;;10533551;28;20031;-65
2022/02/17 20:41:18;;;;;;;15.40;8.75;;;;;;;;;;10533344;28;20028;-66
2022/02/17 20:56:56;;;;;;;;;;;;;;;;;;10533775;28;20044;-66
2022/02/17 21:01:56;;;;;;;14.38;8.52;;;;;;;;;;10531708;28;20010;-67
2022/02/17 21:06:56;;;;;;;13.43;8.37;;;;;;;;;;10533131;28;20494;-66
2022/02/17 21:11:57;;;;;;;18.83;8.57;;;;;;;;;;10532757;28;20429;-65
2022/02/17 21:16:59;;;;;;;22.15;8.73;;;;;;;;;;10532788;28;20020;-68
2022/02/17 21:22:03;;;;;;;16.00;8.07;;;;;;;;;;10531936;28;20586;-67
2022/02/17 21:27:03;;;;;;;18.90;8.07;;;;;;;;;;10532157;28;20028;-68
2022/02/17 21:32:04;;;;;;;22.27;7.47;;;;;;;;;;10532046;28;20028;-66
2022/02/17 21:37:05;;;;;;;18.17;8.35;;;;;;;;;;10531463;28;20552;-68
2022/02/17 21:42:07;;;;;;;17.60;7.90;;;;;;;;;;10529679;28;20295;-67
2022/02/17 21:47:07;;;;;;;14.50;7.25;;;;;;;;;;10528351;28;20445;-65
2022/02/17 21:52:08;;;;;;;19.55;7.40;;;;;;;;;;10526179;28;20028;-65
2022/02/17 21:57:09;;;;;;;17.67;7.90;;;;;;;;;;10526982;28;20036;-70
2022/02/17 22:02:09;;;;;;;19.92;7.40;;;;;;;;;;10529148;28;20020;-67
2022/02/17 22:07:11;;;;;;;23.27;7.57;;;;;;;;;;10529158;28;20035;-62
2022/02/17 22:12:11;;;;;;;15.35;7.10;;;;;;;;;;10532396;28;20066;-65
2022/02/17 22:17:12;;;;;;;13.43;6.28;;;;;;;;;;10536873;28;20114;-66
2022/02/17 22:22:12;;;;;;;12.53;6.60;;;;;;;;;;10536189;28;20384;-64
2022/02/17 22:27:12;;;;;;;12.20;7.27;;;;;;;;;;10535970;28;20721;-64
2022/02/17 22:32:13;;;;;;;36.92;6.88;;;;;;;;;;10535652;28;20433;-70
2022/02/17 22:37:15;;;;;;;19.52;6.47;;;;;;;;;;10536390;28;20024;-63
2022/02/17 22:42:15;;;;;;;29.10;6.68;;;;;;;;;;10536356;28;20028;-59
2022/02/17 22:47:15;;;;;;;18.77;6.25;;;;;;;;;;10535435;28;20019;-58
2022/02/17 22:52:16;;;;;;;13.67;6.80;;;;;;;;;;10536696;28;20035;-61
2022/02/17 22:57:17;;;;;;;12.93;7.00;;;;;;;;;;10536112;28;20506;-58
2022/02/17 23:02:18;;;;;;;16.52;6.95;;;;;;;;;;10537206;28;20437;-61
2022/02/17 23:07:20;;;;;;;12.18;6.57;;;;;;;;;;10536974;28;20024;-67
2022/02/17 23:12:20;;;;;;;17.55;6.10;;;;;;;;;;10536439;28;20533;-65
2022/02/17 23:22:40;;;;;;;11.48;5.45;;;;;;;;;;10535379;28;20386;-64
2022/02/17 23:27:40;;;;;;;16.30;6.47;;;;;;;;;;10536204;28;20028;-63
2022/02/17 23:32:41;;;;;;;9.17;5.97;;;;;;;;;;10537366;28;21002;-65
2022/02/17 23:37:41;;;;;;;17.42;6.68;;;;;;;;;;10537242;28;20468;-65
2022/02/17 23:42:43;;;;;;;11.13;6.50;;;;;;;;;;10536641;28;20500;-63
2022/02/17 23:47:43;;;;;;;14.73;6.35;;;;;;;;;;10536517;28;20445;-66
2022/02/17 23:52:43;;;;;;;15.77;5.90;;;;;;;;;;10536269;28;20409;-62
2022/02/17 23:57:44;;;;;;;14.33;6.80;;;;;;;;;;10535948;28;20301;-62
